NAY16PP GCXO-GCLP
Flight info
| Callsign | NAY16PP |
|---|---|
| Flight time | 0h 43m |
| Altitude | 14000 |
| Route | LALTO |
| Aircraft | AT76/M-SDFGIRY/S |
Departure
| Time | 2026-04-22 15:17 |
|---|---|
| Airport | Tenerife Norte-Ciudad de La Laguna Airport (GCXO) |
Arrival
| Time | 2026-04-22 16:01 |
|---|---|
| Airport | Gran Canaria Airport (GCLP) |
| Time | Latitude | Longitude | Altitude | Speed | Heading |
|---|---|---|---|---|---|
| 2026-04-22 14:25 | 28.48670 | -16.34629 | 2066 ft | 0 kts | 21° |
| 2026-04-22 15:07 | 28.48669 | -16.34630 | 2066 ft | 1 kts | 21° |
| 2026-04-22 15:07 | 28.48649 | -16.34639 | 2067 ft | 5 kts | 21° |
| 2026-04-22 15:08 | 28.48604 | -16.34660 | 2067 ft | 8 kts | 23° |
| 2026-04-22 15:08 | 28.48560 | -16.34692 | 2070 ft | 5 kts | 82° |
| 2026-04-22 15:08 | 28.48559 | -16.34699 | 2071 ft | 0 kts | 87° |
| 2026-04-22 15:09 | 28.48560 | -16.34667 | 2069 ft | 16 kts | 89° |
| 2026-04-22 15:09 | 28.48526 | -16.34557 | 2063 ft | 0 kts | 119° |
| 2026-04-22 15:10 | 28.48526 | -16.34556 | 2063 ft | 2 kts | 119° |
| 2026-04-22 15:10 | 28.48504 | -16.34513 | 2060 ft | 10 kts | 118° |
| 2026-04-22 15:11 | 28.48469 | -16.34421 | 2056 ft | 15 kts | 112° |
| 2026-04-22 15:11 | 28.48429 | -16.34302 | 2051 ft | 18 kts | 111° |
| 2026-04-22 15:11 | 28.48385 | -16.34164 | 2047 ft | 20 kts | 109° |
| 2026-04-22 15:11 | 28.48335 | -16.34014 | 2041 ft | 21 kts | 111° |
| 2026-04-22 15:12 | 28.48283 | -16.33860 | 2038 ft | 21 kts | 111° |
| 2026-04-22 15:12 | 28.48233 | -16.33709 | 2036 ft | 20 kts | 110° |
| 2026-04-22 15:12 | 28.48185 | -16.33563 | 2033 ft | 20 kts | 110° |
| 2026-04-22 15:12 | 28.48139 | -16.33419 | 2035 ft | 19 kts | 111° |
| 2026-04-22 15:13 | 28.48091 | -16.33277 | 2026 ft | 19 kts | 110° |
| 2026-04-22 15:13 | 28.48044 | -16.33132 | 2019 ft | 20 kts | 111° |
| 2026-04-22 15:13 | 28.47992 | -16.32984 | 2015 ft | 20 kts | 110° |
| 2026-04-22 15:13 | 28.47943 | -16.32835 | 2011 ft | 20 kts | 111° |
| 2026-04-22 15:14 | 28.47896 | -16.32691 | 2011 ft | 19 kts | 110° |
| 2026-04-22 15:14 | 28.47832 | -16.32561 | 2010 ft | 18 kts | 138° |
| 2026-04-22 15:14 | 28.47741 | -16.32565 | 2012 ft | 11 kts | 254° |
| 2026-04-22 15:14 | 28.47743 | -16.32579 | 2011 ft | 0 kts | 291° |
| 2026-04-22 15:16 | 28.47744 | -16.32579 | 2011 ft | 1 kts | 291° |
| 2026-04-22 15:17 | 28.47791 | -16.32717 | 2011 ft | 47 kts | 290° |
| 2026-04-22 15:17 | 28.47976 | -16.33271 | 2033 ft | 101 kts | 292° |
| 2026-04-22 15:17 | 28.48266 | -16.34152 | 2199 ft | 125 kts | 290° |
| 2026-04-22 15:17 | 28.48543 | -16.35082 | 2737 ft | 125 kts | 288° |
| 2026-04-22 15:18 | 28.48814 | -16.36032 | 3254 ft | 128 kts | 291° |
| 2026-04-22 15:18 | 28.49136 | -16.36986 | 3809 ft | 129 kts | 291° |
| 2026-04-22 15:18 | 28.49440 | -16.37944 | 4355 ft | 129 kts | 291° |
| 2026-04-22 15:18 | 28.49727 | -16.38882 | 4728 ft | 133 kts | 288° |
| 2026-04-22 15:19 | 28.50063 | -16.39981 | 4817 ft | 153 kts | 290° |
| 2026-04-22 15:19 | 28.50467 | -16.41206 | 4891 ft | 174 kts | 290° |
| 2026-04-22 15:19 | 28.50909 | -16.42545 | 5107 ft | 184 kts | 290° |
| 2026-04-22 15:19 | 28.51321 | -16.43890 | 5527 ft | 180 kts | 285° |
| 2026-04-22 15:20 | 28.51572 | -16.44810 | 5705 ft | 184 kts | 289° |
| 2026-04-22 15:20 | 28.52248 | -16.46611 | 6151 ft | 188 kts | 291° |
| 2026-04-22 15:20 | 28.52782 | -16.47967 | 6508 ft | 188 kts | 289° |
| 2026-04-22 15:20 | 28.53274 | -16.49347 | 6836 ft | 187 kts | 287° |
| 2026-04-22 15:21 | 28.53735 | -16.50730 | 7159 ft | 187 kts | 286° |
| 2026-04-22 15:21 | 28.54221 | -16.52096 | 7455 ft | 188 kts | 297° |
| 2026-04-22 15:21 | 28.55283 | -16.52996 | 7733 ft | 202 kts | 343° |
| 2026-04-22 15:21 | 28.56690 | -16.52847 | 8020 ft | 209 kts | 19° |
| 2026-04-22 15:22 | 28.58044 | -16.52228 | 8297 ft | 211 kts | 21° |
| 2026-04-22 15:22 | 28.59396 | -16.51555 | 8568 ft | 213 kts | 22° |
| 2026-04-22 15:22 | 28.60816 | -16.51196 | 8800 ft | 208 kts | 357° |
| 2026-04-22 15:22 | 28.62273 | -16.51182 | 9053 ft | 210 kts | 355° |
| 2026-04-22 15:23 | 28.63744 | -16.51210 | 9327 ft | 211 kts | 354° |
| 2026-04-22 15:23 | 28.65213 | -16.51238 | 9567 ft | 213 kts | 2° |
| 2026-04-22 15:23 | 28.66544 | -16.50527 | 9783 ft | 223 kts | 45° |
| 2026-04-22 15:23 | 28.67250 | -16.48991 | 10019 ft | 221 kts | 85° |
| 2026-04-22 15:24 | 28.67021 | -16.47332 | 10246 ft | 210 kts | 126° |
| 2026-04-22 15:24 | 28.66005 | -16.46279 | 10480 ft | 194 kts | 166° |
| 2026-04-22 15:24 | 28.64736 | -16.45826 | 10681 ft | 197 kts | 155° |
| 2026-04-22 15:24 | 28.63640 | -16.44860 | 10872 ft | 200 kts | 149° |
| 2026-04-22 15:25 | 28.62546 | -16.43870 | 11082 ft | 203 kts | 142° |
| 2026-04-22 15:25 | 28.61581 | -16.42677 | 11310 ft | 207 kts | 135° |
| 2026-04-22 15:25 | 28.60731 | -16.41342 | 11552 ft | 210 kts | 129° |
| 2026-04-22 15:25 | 28.59981 | -16.39908 | 11786 ft | 211 kts | 125° |
| 2026-04-22 15:26 | 28.59280 | -16.38433 | 12009 ft | 212 kts | 124° |
| 2026-04-22 15:26 | 28.58579 | -16.36955 | 12231 ft | 211 kts | 128° |
| 2026-04-22 15:26 | 28.57822 | -16.35527 | 12447 ft | 212 kts | 125° |
| 2026-04-22 15:26 | 28.57121 | -16.34047 | 12677 ft | 212 kts | 124° |
| 2026-04-22 15:27 | 28.56426 | -16.32561 | 12875 ft | 214 kts | 124° |
| 2026-04-22 15:27 | 28.55657 | -16.31124 | 12870 ft | 215 kts | 127° |
| 2026-04-22 15:27 | 28.54917 | -16.29628 | 12931 ft | 219 kts | 124° |
| 2026-04-22 15:27 | 28.54187 | -16.28078 | 13005 ft | 226 kts | 124° |
| 2026-04-22 15:28 | 28.53403 | -16.26505 | 13022 ft | 230 kts | 129° |
| 2026-04-22 15:28 | 28.52536 | -16.24947 | 13041 ft | 237 kts | 127° |
| 2026-04-22 15:28 | 28.51682 | -16.23309 | 13068 ft | 245 kts | 126° |
| 2026-04-22 15:28 | 28.50801 | -16.21618 | 13044 ft | 251 kts | 126° |
| 2026-04-22 15:29 | 28.49894 | -16.19889 | 12848 ft | 260 kts | 126° |
| 2026-04-22 15:29 | 28.48934 | -16.18099 | 12515 ft | 272 kts | 127° |
| 2026-04-22 15:29 | 28.47935 | -16.16255 | 12544 ft | 266 kts | 127° |
| 2026-04-22 15:30 | 28.46387 | -16.13410 | 12930 ft | 250 kts | 127° |
| 2026-04-22 15:30 | 28.45171 | -16.11182 | 12985 ft | 250 kts | 127° |
| 2026-04-22 15:30 | 28.44236 | -16.09468 | 13009 ft | 252 kts | 127° |
| 2026-04-22 15:30 | 28.43325 | -16.07799 | 13017 ft | 253 kts | 127° |
| 2026-04-22 15:31 | 28.42395 | -16.06091 | 13013 ft | 255 kts | 127° |
| 2026-04-22 15:31 | 28.41460 | -16.04377 | 13011 ft | 256 kts | 127° |
| 2026-04-22 15:31 | 28.40522 | -16.02652 | 13010 ft | 257 kts | 127° |
| 2026-04-22 15:31 | 28.39575 | -16.00924 | 13006 ft | 257 kts | 127° |
| 2026-04-22 15:32 | 28.38634 | -15.99198 | 13000 ft | 258 kts | 127° |
| 2026-04-22 15:32 | 28.37687 | -15.97462 | 13000 ft | 258 kts | 127° |
| 2026-04-22 15:32 | 28.36742 | -15.95731 | 12998 ft | 258 kts | 127° |
| 2026-04-22 15:32 | 28.35797 | -15.93997 | 12998 ft | 258 kts | 127° |
| 2026-04-22 15:33 | 28.34851 | -15.92265 | 12996 ft | 258 kts | 127° |
| 2026-04-22 15:33 | 28.33905 | -15.90532 | 12996 ft | 258 kts | 127° |
| 2026-04-22 15:33 | 28.32959 | -15.88798 | 12996 ft | 258 kts | 127° |
| 2026-04-22 15:33 | 28.32010 | -15.87067 | 12996 ft | 258 kts | 127° |
| 2026-04-22 15:34 | 28.31063 | -15.85332 | 12988 ft | 259 kts | 127° |
| 2026-04-22 15:34 | 28.30114 | -15.83600 | 12991 ft | 259 kts | 127° |
| 2026-04-22 15:34 | 28.29166 | -15.81867 | 12993 ft | 258 kts | 127° |
| 2026-04-22 15:34 | 28.28217 | -15.80133 | 12994 ft | 259 kts | 127° |
| 2026-04-22 15:35 | 28.27590 | -15.78993 | 12997 ft | 259 kts | 127° |
| 2026-04-22 15:35 | 28.26321 | -15.76675 | 12999 ft | 259 kts | 127° |
| 2026-04-22 15:35 | 28.25369 | -15.74940 | 13000 ft | 259 kts | 127° |
| 2026-04-22 15:35 | 28.24418 | -15.73204 | 12999 ft | 259 kts | 127° |
| 2026-04-22 15:36 | 28.23468 | -15.71472 | 12998 ft | 259 kts | 127° |
| 2026-04-22 15:36 | 28.22517 | -15.69741 | 12998 ft | 259 kts | 127° |
| 2026-04-22 15:36 | 28.21565 | -15.68006 | 12998 ft | 259 kts | 127° |
| 2026-04-22 15:36 | 28.20612 | -15.66274 | 12998 ft | 259 kts | 127° |
| 2026-04-22 15:37 | 28.19662 | -15.64542 | 12994 ft | 259 kts | 127° |
| 2026-04-22 15:37 | 28.18710 | -15.62812 | 12997 ft | 259 kts | 127° |
| 2026-04-22 15:37 | 28.17760 | -15.61085 | 12999 ft | 258 kts | 127° |
| 2026-04-22 15:37 | 28.16810 | -15.59356 | 12999 ft | 258 kts | 127° |
| 2026-04-22 15:38 | 28.16050 | -15.57973 | 12996 ft | 258 kts | 127° |
| 2026-04-22 15:40 | 28.15370 | -15.56778 | 12967 ft | 259 kts | 127° |
| 2026-04-22 15:40 | 28.14413 | -15.55058 | 12986 ft | 258 kts | 127° |
| 2026-04-22 15:40 | 28.13775 | -15.53894 | 12988 ft | 258 kts | 127° |
| 2026-04-22 15:41 | 28.12838 | -15.52188 | 12994 ft | 258 kts | 127° |
| 2026-04-22 15:41 | 28.11898 | -15.50457 | 12997 ft | 258 kts | 127° |
| 2026-04-22 15:41 | 28.10966 | -15.48723 | 12998 ft | 259 kts | 126° |
| 2026-04-22 15:41 | 28.10030 | -15.46981 | 12996 ft | 259 kts | 127° |
| 2026-04-22 15:42 | 28.09060 | -15.45256 | 12994 ft | 259 kts | 128° |
| 2026-04-22 15:42 | 28.08093 | -15.43542 | 12993 ft | 259 kts | 128° |
| 2026-04-22 15:42 | 28.07032 | -15.41931 | 12992 ft | 254 kts | 138° |
| 2026-04-22 15:42 | 28.05764 | -15.40535 | 13001 ft | 254 kts | 143° |
| 2026-04-22 15:43 | 28.04457 | -15.39183 | 12996 ft | 255 kts | 143° |
| 2026-04-22 15:43 | 28.03156 | -15.37810 | 12989 ft | 256 kts | 141° |
| 2026-04-22 15:43 | 28.01882 | -15.36398 | 12988 ft | 257 kts | 140° |
| 2026-04-22 15:43 | 28.00620 | -15.34971 | 12989 ft | 256 kts | 140° |
| 2026-04-22 15:44 | 27.99353 | -15.33546 | 12991 ft | 256 kts | 141° |
| 2026-04-22 15:44 | 27.98087 | -15.32120 | 12993 ft | 256 kts | 140° |
| 2026-04-22 15:44 | 27.96826 | -15.30703 | 12993 ft | 256 kts | 141° |
| 2026-04-22 15:44 | 27.95560 | -15.29285 | 12993 ft | 256 kts | 141° |
| 2026-04-22 15:45 | 27.94299 | -15.27863 | 12995 ft | 256 kts | 140° |
| 2026-04-22 15:45 | 27.93033 | -15.26441 | 13003 ft | 257 kts | 141° |
| 2026-04-22 15:45 | 27.91760 | -15.25015 | 12991 ft | 257 kts | 140° |
| 2026-04-22 15:45 | 27.90496 | -15.23593 | 12991 ft | 257 kts | 141° |
| 2026-04-22 15:46 | 27.89228 | -15.22172 | 12992 ft | 257 kts | 141° |
| 2026-04-22 15:46 | 27.87978 | -15.20770 | 12991 ft | 256 kts | 140° |
| 2026-04-22 15:46 | 27.86696 | -15.19332 | 12992 ft | 256 kts | 141° |
| 2026-04-22 15:46 | 27.85446 | -15.17933 | 12992 ft | 256 kts | 141° |
| 2026-04-22 15:47 | 27.84165 | -15.16496 | 12992 ft | 256 kts | 141° |
| 2026-04-22 15:47 | 27.82898 | -15.15078 | 12990 ft | 256 kts | 141° |
| 2026-04-22 15:47 | 27.81652 | -15.13683 | 12987 ft | 257 kts | 141° |
| 2026-04-22 15:47 | 27.80383 | -15.12258 | 12961 ft | 258 kts | 141° |
| 2026-04-22 15:48 | 27.79109 | -15.10837 | 12913 ft | 260 kts | 141° |
| 2026-04-22 15:48 | 27.77795 | -15.09372 | 12598 ft | 271 kts | 141° |
| 2026-04-22 15:48 | 27.76427 | -15.07843 | 12218 ft | 282 kts | 141° |
| 2026-04-22 15:48 | 27.75012 | -15.06261 | 11846 ft | 289 kts | 140° |
| 2026-04-22 15:49 | 27.73573 | -15.04653 | 11480 ft | 291 kts | 140° |
| 2026-04-22 15:49 | 27.72144 | -15.03057 | 11121 ft | 287 kts | 140° |
| 2026-04-22 15:49 | 27.70650 | -15.01653 | 10763 ft | 273 kts | 158° |
| 2026-04-22 15:49 | 27.68860 | -15.01245 | 10409 ft | 260 kts | 188° |
| 2026-04-22 15:50 | 27.67233 | -15.01981 | 10061 ft | 253 kts | 220° |
| 2026-04-22 15:50 | 27.66269 | -15.03602 | 9697 ft | 254 kts | 251° |
| 2026-04-22 15:50 | 27.66024 | -15.05568 | 9307 ft | 253 kts | 261° |
| 2026-04-22 15:50 | 27.65787 | -15.07545 | 8928 ft | 254 kts | 258° |
| 2026-04-22 15:51 | 27.65432 | -15.09494 | 8550 ft | 254 kts | 255° |
| 2026-04-22 15:51 | 27.64935 | -15.11401 | 8179 ft | 254 kts | 250° |
| 2026-04-22 15:51 | 27.64278 | -15.13246 | 7810 ft | 253 kts | 245° |
| 2026-04-22 15:51 | 27.63744 | -15.15088 | 7447 ft | 250 kts | 265° |
| 2026-04-22 15:52 | 27.64031 | -15.17023 | 7091 ft | 253 kts | 285° |
| 2026-04-22 15:52 | 27.64662 | -15.18888 | 6724 ft | 252 kts | 291° |
| 2026-04-22 15:52 | 27.65351 | -15.20666 | 6375 ft | 244 kts | 292° |
| 2026-04-22 15:52 | 27.66025 | -15.22399 | 5996 ft | 238 kts | 292° |
| 2026-04-22 15:53 | 27.66650 | -15.24096 | 5622 ft | 233 kts | 291° |
| 2026-04-22 15:53 | 27.67246 | -15.25778 | 5243 ft | 229 kts | 291° |
| 2026-04-22 15:53 | 27.67827 | -15.27445 | 4914 ft | 224 kts | 291° |
| 2026-04-22 15:53 | 27.68384 | -15.29039 | 4778 ft | 213 kts | 292° |
| 2026-04-22 15:54 | 27.68924 | -15.30579 | 4544 ft | 209 kts | 292° |
| 2026-04-22 15:54 | 27.69451 | -15.32082 | 4338 ft | 204 kts | 292° |
| 2026-04-22 15:54 | 27.69971 | -15.33571 | 4133 ft | 206 kts | 291° |
| 2026-04-22 15:54 | 27.70500 | -15.35083 | 3938 ft | 209 kts | 292° |
| 2026-04-22 15:55 | 27.71042 | -15.36617 | 3750 ft | 211 kts | 292° |
| 2026-04-22 15:55 | 27.71580 | -15.38169 | 3596 ft | 214 kts | 291° |
| 2026-04-22 15:55 | 27.72128 | -15.39736 | 3437 ft | 216 kts | 291° |
| 2026-04-22 15:55 | 27.72678 | -15.41323 | 3285 ft | 219 kts | 291° |
| 2026-04-22 15:56 | 27.73334 | -15.42857 | 3086 ft | 217 kts | 309° |
| 2026-04-22 15:56 | 27.74555 | -15.43833 | 2870 ft | 217 kts | 332° |
| 2026-04-22 15:56 | 27.75922 | -15.44543 | 2689 ft | 214 kts | 336° |
| 2026-04-22 15:56 | 27.77223 | -15.45153 | 2504 ft | 191 kts | 339° |
| 2026-04-22 15:57 | 27.78445 | -15.45186 | 2326 ft | 169 kts | 16° |
| 2026-04-22 15:57 | 27.79517 | -15.44744 | 2142 ft | 161 kts | 20° |
| 2026-04-22 15:57 | 27.80522 | -15.44298 | 2050 ft | 147 kts | 25° |
| 2026-04-22 15:57 | 27.81399 | -15.43853 | 2009 ft | 129 kts | 27° |
| 2026-04-22 15:58 | 27.82174 | -15.43462 | 1994 ft | 112 kts | 25° |
| 2026-04-22 15:58 | 27.82884 | -15.43157 | 1947 ft | 112 kts | 23° |
| 2026-04-22 15:58 | 27.83651 | -15.42862 | 2019 ft | 122 kts | 21° |
| 2026-04-22 15:58 | 27.84471 | -15.42504 | 2013 ft | 131 kts | 21° |
| 2026-04-22 15:59 | 27.85347 | -15.42138 | 1900 ft | 129 kts | 21° |
| 2026-04-22 15:59 | 27.86180 | -15.41803 | 1760 ft | 131 kts | 25° |
| 2026-04-22 15:59 | 27.87018 | -15.41409 | 1532 ft | 128 kts | 27° |
| 2026-04-22 15:59 | 27.87821 | -15.41020 | 1173 ft | 125 kts | 26° |
| 2026-04-22 16:00 | 27.88612 | -15.40663 | 913 ft | 119 kts | 22° |
| 2026-04-22 16:00 | 27.89353 | -15.40342 | 719 ft | 110 kts | 21° |
| 2026-04-22 16:00 | 27.90056 | -15.40051 | 500 ft | 108 kts | 22° |
| 2026-04-22 16:00 | 27.90788 | -15.39731 | 406 ft | 115 kts | 22° |
| 2026-04-22 16:01 | 27.91513 | -15.39395 | 195 ft | 109 kts | 25° |
| 2026-04-22 16:01 | 27.92176 | -15.39101 | 72 ft | 92 kts | 22° |
| 2026-04-22 16:01 | 27.92599 | -15.38917 | 65 ft | 45 kts | 18° |
| 2026-04-22 16:01 | 27.92866 | -15.38798 | 57 ft | 37 kts | 18° |
| 2026-04-22 16:02 | 27.93093 | -15.38720 | 54 ft | 30 kts | 5° |
| 2026-04-22 16:02 | 27.93266 | -15.38737 | 66 ft | 19 kts | 351° |
| 2026-04-22 16:02 | 27.93335 | -15.38750 | 70 ft | 0 kts | 350° |
| 2026-04-22 16:05 | 27.93414 | -15.38751 | 67 ft | 15 kts | 20° |
| 2026-04-22 16:05 | 27.93497 | -15.38713 | 73 ft | 11 kts | 21° |
| 2026-04-22 16:05 | 27.93559 | -15.38686 | 69 ft | 9 kts | 22° |
| 2026-04-22 16:05 | 27.93610 | -15.38663 | 67 ft | 8 kts | 22° |
| 2026-04-22 16:06 | 27.93656 | -15.38643 | 70 ft | 6 kts | 21° |
| 2026-04-22 16:06 | 27.93701 | -15.38624 | 69 ft | 8 kts | 20° |
| 2026-04-22 16:06 | 27.93781 | -15.38589 | 75 ft | 16 kts | 21° |
| 2026-04-22 16:06 | 27.93907 | -15.38533 | 70 ft | 22 kts | 21° |
| 2026-04-22 16:07 | 27.93978 | -15.38524 | 73 ft | 6 kts | 302° |
| 2026-04-22 16:07 | 27.93991 | -15.38563 | 71 ft | 6 kts | 291° |
| 2026-04-22 16:07 | 27.93999 | -15.38586 | 68 ft | 0 kts | 292° |
| 2026-04-22 16:08 | 27.94001 | -15.38592 | 69 ft | 3 kts | 292° |
| 2026-04-22 16:08 | 27.94011 | -15.38618 | 71 ft | 4 kts | 292° |
| 2026-04-22 16:08 | 27.94023 | -15.38652 | 72 ft | 2 kts | 292° |
| 2026-04-22 16:09 | 27.94036 | -15.38673 | 82 ft | 7 kts | 308° |
| 2026-04-22 16:10 | 27.94053 | -15.38714 | 82 ft | 0 kts | 291° |